Latest Weather Observations for Ceduna

IDS60801

Issued at 10:05 pm CST Wednesday 23 April 2014 (issued every 30 minutes, with the page automatically refreshed every 10 minutes)

About weather observations | Map of weather stations | Latest weather observations for SA | Other Formats
Station Details ID: 018012 Name: CEDUNA AMO Lat: -32.13 Lon: 133.70 Height: 15.3 m
Data from the previous 72 hours. | See also: Recent months at Ceduna
Date/Time
CST
Temp
°C
App
Temp
°C
Dew
Point
Rel
Hum
%
Delta-T
°C
Wind Press
QNH
hPa
Press
MSL
hPa
Rain
since 9 am
mm
Dir
 
Spd
km/h
Gust
km/h
Spd
kts
Gust
kts
23/10:00pm 11.4 11.3 9.6 89 0.9 WSW 0 6 0 3 1018.3 - 0.0
23/09:30pm 12.7 11.6 10.0 84 1.4 SSW 6 7 3 4 1018.2 1018.2 0.0
23/09:00pm 14.4 13.6 11.8 84 1.4 WSW 7 7 4 4 1018.1 1018.1 0.0
23/08:30pm 15.6 14.0 11.7 77 2.1 WSW 11 15 6 8 1017.9 1017.9 0.0
23/08:00pm 16.5 14.4 11.3 71 2.8 WSW 13 17 7 9 1017.9 - 0.0
23/07:30pm 16.9 14.9 11.6 71 2.9 SW 13 19 7 10 1017.6 1017.6 0.0
23/07:00pm 17.3 14.5 11.2 67 3.3 SW 17 20 9 11 1017.4 - 0.0
23/06:30pm 17.2 14.7 10.9 66 3.4 SW 15 17 8 9 1017.0 1017.0 0.0
23/06:00pm 17.6 15.6 10.0 61 4.0 SW 11 15 6 8 1016.6 1016.6 0.0
23/05:30pm 18.8 15.4 9.3 54 5.0 WSW 17 22 9 12 1016.1 1016.1 0.0
23/05:00pm 19.2 15.6 10.0 55 4.9 SW 19 24 10 13 1015.9 - 0.0
23/04:30pm 19.5 15.1 8.8 50 5.6 SW 22 28 12 15 1016.0 1016.0 0.0
23/04:00pm 20.2 16.1 8.5 47 6.1 SW 20 24 11 13 1016.1 - 0.0
23/03:30pm 20.4 16.7 8.0 44 6.4 SW 17 22 9 12 1016.2 1016.2 0.0
23/03:00pm 20.6 16.9 8.1 44 6.5 SW 17 22 9 12 1016.2 1016.2 0.0
23/02:30pm 20.9 17.6 8.0 43 6.7 SW 15 20 8 11 1016.1 1016.1 0.0
23/02:00pm 20.2 17.0 7.0 42 6.7 SSW 13 19 7 10 1016.3 - 0.0
23/01:30pm 20.2 16.8 5.9 39 7.1 SW 13 19 7 10 1016.6 1016.6 0.0
23/01:00pm 19.8 16.5 6.4 41 6.7 SW 13 19 7 10 1017.1 - 0.0
23/12:30pm 19.0 16.4 7.6 47 5.8 SW 11 19 6 10 1017.6 1017.6 0.0
23/12:00pm 18.9 16.0 8.2 50 5.5 SW 13 19 7 10 1018.3 1018.3 0.0
23/11:30am 18.6 15.5 9.0 53 5.0 SW 15 19 8 10 1018.7 1018.7 0.0
23/11:00am 19.1 16.0 9.0 52 5.3 SW 15 19 8 10 1018.9 - 0.0
23/10:30am 19.6 18.6 8.7 49 5.7 NNE 4 9 2 5 1018.9 1018.9 0.0
23/10:00am 18.0 17.2 9.6 58 4.4 SE 4 7 2 4 1019.0 - 0.0
23/09:30am 16.9 15.8 9.8 63 3.7 E 6 7 3 4 1019.2 1019.2 0.0
23/09:00am 14.9 13.9 10.3 74 2.4 NE 6 7 3 4 1019.2 1019.2 0.0
23/08:30am 12.9 11.8 10.6 86 1.2 NNE 7 9 4 5 1019.1 1019.1 0.0
23/08:00am 9.0 8.2 8.0 93 0.5 NE 2 6 1 3 1019.2 - 0.0
23/07:30am 5.7 3.5 5.5 99 0.1 NE 6 7 3 4 1018.9 1018.9 0.0
23/07:17am 5.6 3.3 5.6 100 0.0 NE 7 7 4 4 1018.7 - 0.0
23/07:12am 6.4 4.2 6.2 99 0.1 NE 7 9 4 5 1018.6 - 0.0
23/07:00am 5.5 4.0 5.0 97 0.2 NE 2 7 1 4 1018.5 - 0.0
23/06:30am 5.5 3.1 5.3 99 0.1 NE 7 9 4 5 1018.3 1018.3 0.0
23/06:00am 5.2 2.9 4.7 97 0.2 NE 6 7 3 4 1018.1 1018.1 0.0
23/05:50am 5.3 3.1 5.1 99 0.1 NE 6 7 3 4 1018.1 - 0.0
23/05:33am 5.8 2.8 5.8 100 0.0 NE 11 13 6 7 1018.0 - 0.0
23/05:30am 6.1 3.1 6.1 100 0.0 NE 11 13 6 7 1018.0 1018.0 0.0
23/05:00am 6.5 4.9 6.3 99 0.1 NE 4 7 2 4 1017.9 - 0.0
23/04:47am 5.9 4.8 5.2 95 0.3 CALM 0 0 0 0 1017.8 - 0.0
23/04:30am 6.5 4.3 5.4 93 0.5 NE 6 7 3 4 1017.7 1017.7 0.0
23/04:00am 6.4 3.8 6.0 97 0.2 ENE 9 9 5 5 1017.8 - 0.0
23/03:30am 6.2 3.5 5.5 95 0.3 ENE 9 11 5 6 1018.0 1018.0 0.0
23/03:00am 6.6 4.3 5.7 94 0.4 ENE 7 9 4 5 1018.3 1018.3 0.0
23/02:30am 6.5 3.4 5.6 94 0.4 ENE 11 13 6 7 1018.4 1018.4 0.0
23/02:00am 7.1 4.5 6.2 94 0.4 E 9 11 5 6 1018.7 - 0.0
23/01:30am 8.7 6.5 7.9 95 0.4 E 9 11 5 6 1019.0 1019.0 0.0
23/01:00am 8.8 6.6 7.7 93 0.5 E 9 9 5 5 1019.2 - 0.0
23/12:30am 8.4 5.7 7.3 93 0.5 E 11 13 6 7 1019.4 1019.4 0.0
23/12:00am 10.6 8.0 9.4 92 0.6 E 13 15 7 8 1019.7 1019.7 0.0
 
Date/Time
CST
Temp
°C
App
Temp
°C
Dew
Point
Rel
Hum
%
Delta-T
°C
Wind Press
QNH
hPa
Press
MSL
hPa
Rain
since 9 am
mm
Dir
 
Spd
km/h
Gust
km/h
Spd
kts
Gust
kts
22/11:30pm 9.5 7.4 8.3 92 0.6 SE 9 11 5 6 1020.0 1020.0 0.0
22/11:00pm 10.7 8.5 9.3 91 0.7 SSE 11 13 6 7 1020.1 - 0.0
22/10:30pm 11.7 10.0 9.7 87 1.0 SSE 9 11 5 6 1020.2 1020.2 0.0
22/10:00pm 13.5 11.6 10.6 82 1.5 SSE 11 13 6 7 1020.2 - 0.0
22/09:30pm 14.5 12.3 10.9 79 1.9 SSE 13 15 7 8 1020.1 1020.1 0.0
22/09:00pm 15.8 13.2 10.7 71 2.7 S 15 20 8 11 1020.1 1020.1 0.0
22/08:30pm 15.4 12.8 10.7 73 2.5 S 15 19 8 10 1020.0 1020.0 0.0
22/08:00pm 16.0 12.9 10.3 69 3.0 S 17 20 9 11 1019.7 - 0.0
22/07:30pm 16.2 12.8 10.5 69 3.0 S 19 24 10 13 1019.4 1019.4 0.0
22/07:00pm 16.4 12.9 10.3 67 3.2 S 19 22 10 12 1019.1 - 0.0
22/06:30pm 16.5 13.1 10.5 67 3.2 S 19 26 10 14 1019.0 1019.0 0.0
22/06:00pm 17.0 13.1 10.8 67 3.3 S 22 28 12 15 1018.7 1018.7 0.0
22/05:30pm 17.9 13.3 11.0 64 3.7 S 26 32 14 17 1018.4 1018.4 0.0
22/05:00pm 18.3 12.9 10.9 62 4.0 S 30 37 16 20 1018.3 - 0.0
22/04:30pm 18.6 13.1 10.6 59 4.3 S 30 39 16 21 1018.3 1018.3 0.0
22/04:00pm 19.4 13.9 10.5 56 4.8 S 30 39 16 21 1018.2 - 0.0
22/03:30pm 20.0 13.9 9.9 52 5.4 S 32 39 17 21 1018.1 1018.1 0.0
22/03:00pm 19.9 13.9 10.2 53 5.2 S 32 39 17 21 1018.1 1018.1 0.0
22/02:30pm 19.9 14.3 10.0 53 5.3 S 30 37 16 20 1018.1 1018.1 0.0
22/02:00pm 19.6 13.7 10.5 55 4.9 S 32 43 17 23 1018.2 - 0.0
22/01:30pm 19.9 14.0 10.5 54 5.1 S 32 43 17 23 1018.4 1018.4 0.0
22/01:00pm 19.8 14.3 10.5 55 5.0 S 30 39 16 21 1018.6 - 0.0
22/12:30pm 19.8 14.9 11.2 57 4.7 S 28 39 15 21 1018.9 1018.9 0.0
22/12:00pm 20.2 15.4 11.7 58 4.7 S 28 43 15 23 1019.2 1019.2 0.0
22/11:30am 19.9 15.2 12.0 60 4.4 S 28 37 15 20 1019.2 1019.2 0.0
22/11:00am 19.6 14.9 12.0 61 4.2 S 28 35 15 19 1019.3 - 0.0
22/10:30am 19.0 14.4 12.3 65 3.7 S 28 37 15 20 1019.4 1019.4 0.0
22/10:00am 19.0 15.3 12.6 66 3.6 S 24 33 13 18 1019.2 - 0.0
22/09:30am 18.8 14.6 12.3 66 3.6 SSE 26 33 14 18 1019.1 1019.1 0.0
22/09:00am 18.5 14.9 13.0 70 3.1 SSE 24 32 13 17 1019.0 1019.0 0.0
22/08:30am 18.2 14.5 12.6 70 3.1 S 24 32 13 17 1018.8 1018.8 0.0
22/08:00am 17.6 14.3 12.7 73 2.7 S 22 28 12 15 1018.4 - 0.0
22/07:30am 16.2 14.4 13.3 83 1.6 SSE 15 20 8 11 1018.1 1018.1 0.0
22/07:00am 16.0 13.7 12.9 82 1.7 S 17 22 9 12 1017.6 - 0.0
22/06:30am 15.8 13.9 12.9 83 1.6 S 15 19 8 10 1017.1 1017.1 0.0
22/06:00am 16.2 13.9 13.0 81 1.8 S 17 20 9 11 1016.8 1016.8 0.0
22/05:30am 16.3 14.4 13.1 81 1.8 S 15 20 8 11 1016.6 1016.6 0.0
22/05:00am 16.7 13.5 13.1 79 2.0 S 22 28 12 15 1016.3 - 0.0
22/04:30am 16.9 14.3 13.1 78 2.1 SSE 19 24 10 13 1016.0 1016.0 0.0
22/04:00am 17.3 14.1 13.2 77 2.3 SSE 22 32 12 17 1015.5 - 0.0
22/03:30am 17.7 14.3 13.6 77 2.3 S 24 33 13 18 1015.7 1015.7 0.0
22/03:00am 17.9 15.3 13.9 77 2.3 S 20 28 11 15 1015.6 1015.6 0.0
22/02:30am 18.1 15.4 13.5 74 2.6 S 20 28 11 15 1015.6 1015.6 0.0
22/02:00am 18.2 15.4 14.4 78 2.2 S 22 33 12 18 1015.5 - 0.0
22/01:30am 18.4 16.0 15.3 82 1.8 S 22 30 12 16 1015.4 1015.4 0.0
22/01:00am 18.2 17.8 16.2 88 1.2 S 13 19 7 10 1015.3 - 0.0
22/12:30am 18.3 16.7 16.1 87 1.3 S 19 26 10 14 1015.1 1015.1 0.0
22/12:14am 18.4 17.2 16.2 87 1.3 S 17 22 9 12 1015.0 - 0.0
22/12:00am 18.5 17.8 16.3 87 1.3 S 15 20 8 11 1014.8 1014.8 0.0
 
Date/Time
CST
Temp
°C
App
Temp
°C
Dew
Point
Rel
Hum
%
Delta-T
°C
Wind Press
QNH
hPa
Press
MSL
hPa
Rain
since 9 am
mm
Dir
 
Spd
km/h
Gust
km/h
Spd
kts
Gust
kts
21/11:30pm 18.7 17.3 16.5 87 1.3 S 19 26 10 14 1014.8 1014.8 0.0
21/11:00pm 18.9 17.8 16.4 85 1.5 S 17 22 9 12 1014.9 - 0.0
21/10:30pm 19.0 17.5 16.7 86 1.4 S 20 26 11 14 1014.3 1014.3 0.0
21/10:13pm 19.0 18.2 17.2 89 1.1 SSW 17 22 9 12 1014.2 - 0.0
21/10:00pm 19.1 18.8 17.3 89 1.1 SW 15 19 8 10 1014.0 - 0.0
21/09:39pm 19.1 19.2 17.5 90 1.0 SW 13 17 7 9 1014.0 - 0.0
21/09:30pm 19.1 18.8 17.3 89 1.1 SW 15 19 8 10 1013.9 1013.9 0.0
21/09:00pm 18.9 19.0 17.4 91 0.9 WSW 13 19 7 10 1013.7 1013.7 0.0
21/08:36pm 18.6 18.2 17.1 91 0.9 WSW 15 19 8 10 1013.5 - 0.0
21/08:30pm 18.5 18.4 17.0 91 0.9 WSW 13 17 7 9 1013.5 1013.5 0.0
21/08:00pm 18.7 19.0 16.9 89 1.1 WSW 11 15 6 8 1013.1 - 0.0
21/07:30pm 18.8 18.7 17.0 89 1.1 SW 13 17 7 9 1012.8 1012.8 0.0
21/07:00pm 19.0 18.9 17.0 88 1.2 SW 13 17 7 9 1012.1 - 0.0
21/06:30pm 18.9 20.1 16.9 88 1.2 SW 6 9 3 5 1011.8 1011.8 0.0
21/06:00pm 19.6 18.3 16.8 84 1.7 SW 19 22 10 12 1011.2 1011.2 0.0
21/05:30pm 20.5 18.2 15.8 74 2.8 WSW 22 28 12 15 1011.1 1011.1 0.0
21/05:00pm 22.0 18.5 13.5 58 4.9 SW 24 37 13 20 1010.6 - 0.0
21/04:30pm 23.5 19.6 12.1 48 6.5 SW 24 32 13 17 1010.1 1010.1 0.0
21/04:00pm 24.1 19.9 11.1 44 7.3 SW 24 32 13 17 1009.3 - 0.0
21/03:30pm 27.4 24.3 10.3 34 9.6 SW 17 26 9 14 1009.3 1009.3 0.0
21/03:26pm 27.6 23.7 9.6 32 10.0 SW 20 26 11 14 1009.3 - 0.0
21/03:00pm 32.9 26.0 -2.6 10 16.6 NW 24 35 13 19 1009.2 1009.2 0.0
21/02:30pm 33.2 26.1 -1.2 11 16.5 WNW 26 41 14 22 1009.2 1009.2 0.0
21/02:00pm 32.6 25.7 0.3 12 15.8 NW 26 39 14 21 1009.5 - 0.0
21/01:30pm 32.6 24.3 -2.0 11 16.3 NW 32 43 17 23 1009.7 1009.7 0.0
21/01:12pm 32.8 24.6 -1.0 11 16.2 NNW 32 50 17 27 1010.0 - 0.0
21/01:00pm 32.7 25.0 -0.3 12 16.0 NW 30 43 16 23 1010.3 - 0.0
21/12:30pm 31.8 23.5 0.0 13 15.4 NNW 33 48 18 26 1010.6 1010.6 0.0
21/12:00pm 31.5 22.0 -0.4 13 15.3 NNW 39 50 21 27 1011.0 1011.0 0.0
21/11:30am 30.6 21.2 0.0 14 14.7 NNW 39 50 21 27 1011.4 1011.4 0.0
21/11:00am 30.3 20.2 0.5 14 14.4 NNW 43 56 23 30 1011.6 - 0.0
21/10:30am 28.7 19.9 1.2 17 13.3 N 37 48 20 26 1011.9 1011.9 0.0
21/10:19am 28.2 19.1 1.6 18 12.9 N 39 57 21 31 1012.1 - 0.0
21/10:00am 26.8 17.6 1.3 19 12.2 N 39 56 21 30 1012.2 - 0.0
21/09:39am 26.7 18.3 1.8 20 12.0 N 35 54 19 29 1012.5 - 0.0
21/09:30am 25.8 17.4 1.8 21 11.5 N 35 50 19 27 1012.3 1012.3 0.0
21/09:00am 25.1 17.1 1.8 22 11.1 N 33 46 18 25 1012.4 1012.4 0.0
21/08:30am 24.4 17.4 2.2 23 10.6 N 28 41 15 22 1012.4 1012.4 0.0
21/08:00am 23.6 16.2 2.1 24 10.2 N 30 37 16 20 1012.2 - 0.0
21/07:30am 22.9 16.3 2.1 25 9.8 N 26 35 14 19 1012.2 1012.2 0.0
21/07:00am 22.5 16.0 2.4 26 9.5 N 26 33 14 18 1012.0 - 0.0
21/06:30am 22.4 15.9 2.6 27 9.4 N 26 37 14 20 1012.1 1012.1 0.0
21/06:00am 22.5 16.0 2.4 26 9.5 N 26 33 14 18 1011.9 1011.9 0.0
21/05:30am 22.5 16.0 2.4 26 9.5 N 26 33 14 18 1011.7 1011.7 0.0
21/05:00am 22.4 16.3 2.6 27 9.4 N 24 32 13 17 1011.4 - 0.0
21/04:30am 22.5 16.0 2.4 26 9.5 N 26 32 14 17 1011.1 1011.1 0.0
21/04:00am 22.5 16.3 2.4 26 9.5 N 24 32 13 17 1011.1 - 0.0
21/03:30am 22.7 16.6 2.5 26 9.6 N 24 30 13 16 1011.3 1011.3 0.0
21/03:00am 22.7 16.2 2.5 26 9.6 N 26 32 14 17 1011.5 1011.5 0.0
21/02:30am 22.5 16.0 2.4 26 9.5 N 26 35 14 19 1011.6 1011.6 0.0
21/02:00am 22.3 16.1 2.4 27 9.4 N 24 30 13 16 1011.9 - 0.0
21/01:30am 22.1 16.3 2.4 27 9.3 N 22 28 12 15 1012.1 1012.1 0.0
21/01:00am 22.1 15.9 2.0 26 9.4 N 24 28 13 15 1012.2 - 0.0
21/12:30am 22.2 16.3 1.8 26 9.5 N 22 30 12 16 1012.3 1012.3 0.0
21/12:00am 22.9 16.6 1.4 24 10.0 N 24 32 13 17 1012.3 1012.3 0.0
 
Date/Time
CST
Temp
°C
App
Temp
°C
Dew
Point
Rel
Hum
%
Delta-T
°C
Wind Press
QNH
hPa
Press
MSL
hPa
Rain
since 9 am
mm
Dir
 
Spd
km/h
Gust
km/h
Spd
kts
Gust
kts
20/11:30pm 23.8 17.0 0.6 21 10.7 N 26 35 14 19 1012.4 1012.4 0.0
20/11:00pm 22.9 17.4 1.8 25 9.9 N 20 26 11 14 1012.4 - 0.0
20/10:30pm 20.4 16.5 3.6 33 8.0 NNE 13 17 7 9 1012.5 1012.5 0.0

Other Formats:

Comma delimited format used in spreadsheet applications
http://www.bom.gov.au/fwo/IDS60801/IDS60801.94653.axf

JavaScript Object Notation format (JSON) in row-major order
http://www.bom.gov.au/fwo/IDS60801/IDS60801.94653.json